Time;durP1;ratioP1;P1;durP2;ratioP2;P2;SDS_P1;SDS_P2;PMS_P1;PMS_P2;Temp;Humidity;BMP_temperature;BMP_pressure;BME280_temperature;BME280_humidity;BME280_pressure;Samples;Min_cycle;Max_cycle;Signal;HPM_P1;HPM_P2
2021/05/12 00:00:18;;;;;;;5.75;0.60;;;;;;;;;;4935839;29;20421;-59
2021/05/12 00:02:44;;;;;;;3.35;0.65;;;;;;;;;;4933098;28;20343;-60
2021/05/12 00:05:10;;;;;;;3.05;0.50;;;;;;;;;;4938492;28;20047;-58
2021/05/12 00:07:36;;;;;;;1.88;0.50;;;;;;;;;;4935954;28;20082;-59
2021/05/12 00:10:06;;;;;;;1.08;0.40;;;;;;;;;;4934673;28;20082;-58
2021/05/12 00:12:32;;;;;;;2.33;0.50;;;;;;;;;;4934561;28;20107;-61
2021/05/12 00:14:58;;;;;;;1.55;0.50;;;;;;;;;;4911360;29;20035;-61
2021/05/12 00:17:26;;;;;;;2.05;0.40;;;;;;;;;;4935138;28;20051;-59
2021/05/12 00:19:55;;;;;;;2.47;0.40;;;;;;;;;;4934681;28;20054;-61
2021/05/12 00:25:04;;;;;;;3.63;0.60;;;;;;;;;;4935798;29;20111;-61
2021/05/12 00:27:30;;;;;;;3.40;0.50;;;;;;;;;;4933790;28;20039;-61
2021/05/12 00:29:56;;;;;;;4.78;0.60;;;;;;;;;;4935495;29;20039;-62
2021/05/12 00:32:22;;;;;;;2.53;0.63;;;;;;;;;;4933199;29;20047;-61
2021/05/12 00:34:48;;;;;;;6.82;0.80;;;;;;;;;;4934447;29;20039;-61
2021/05/12 00:37:13;;;;;;;2.72;0.50;;;;;;;;;;4935050;29;20032;-61
2021/05/12 00:39:39;;;;;;;3.78;0.50;;;;;;;;;;4934349;28;20395;-61
2021/05/12 00:42:05;;;;;;;3.47;0.60;;;;;;;;;;4935349;28;20133;-60
2021/05/12 00:44:31;;;;;;;1.83;0.50;;;;;;;;;;4932788;28;20126;-61
2021/05/12 00:47:01;;;;;;;2.72;0.60;;;;;;;;;;4937423;29;20051;-61
2021/05/12 00:49:27;;;;;;;2.17;0.50;;;;;;;;;;4935303;29;20070;-62
2021/05/12 00:51:53;;;;;;;3.15;0.52;;;;;;;;;;4934281;29;20055;-62
2021/05/12 00:54:19;;;;;;;4.55;0.60;;;;;;;;;;4933518;29;20063;-61
2021/05/12 00:56:45;;;;;;;2.13;0.52;;;;;;;;;;4934491;29;20078;-61
2021/05/12 00:59:11;;;;;;;5.72;0.80;;;;;;;;;;4935668;29;20130;-60
2021/05/12 01:01:37;;;;;;;2.50;0.70;;;;;;;;;;4934488;28;20047;-61
2021/05/12 01:04:04;;;;;;;2.03;0.60;;;;;;;;;;4934059;29;20249;-61
2021/05/12 01:06:31;;;;;;;2.10;0.60;;;;;;;;;;4935128;28;20051;-63
2021/05/12 01:08:57;;;;;;;3.47;0.75;;;;;;;;;;4934787;29;20482;-61
2021/05/12 01:11:23;;;;;;;3.28;0.95;;;;;;;;;;4934213;28;20063;-59
2021/05/12 01:13:50;;;;;;;1.98;0.57;;;;;;;;;;4933246;28;20039;-57
2021/05/12 01:16:17;;;;;;;3.03;0.50;;;;;;;;;;4933538;28;20032;-57
2021/05/12 01:18:43;;;;;;;4.85;0.50;;;;;;;;;;4934120;28;20729;-61
2021/05/12 01:21:09;;;;;;;2.63;0.52;;;;;;;;;;4934355;28;20043;-60
2021/05/12 01:23:36;;;;;;;3.00;0.40;;;;;;;;;;4933204;28;20043;-60
2021/05/12 01:26:04;;;;;;;1.83;0.50;;;;;;;;;;4934682;28;22096;-59
2021/05/12 01:28:31;;;;;;;3.75;0.70;;;;;;;;;;4933683;29;20040;-60
2021/05/12 01:31:08;;;;;;;9.23;0.85;;;;;;;;;;4926166;28;20050;-60
2021/05/12 01:33:35;;;;;;;2.25;0.50;;;;;;;;;;4932022;28;20031;-60
2021/05/12 01:36:01;;;;;;;1.15;0.40;;;;;;;;;;4933298;28;20047;-60
2021/05/12 01:38:27;;;;;;;2.03;0.50;;;;;;;;;;4933851;28;20047;-60
2021/05/12 01:40:53;;;;;;;2.17;0.50;;;;;;;;;;4934440;28;20070;-61
2021/05/12 01:43:19;;;;;;;1.17;0.40;;;;;;;;;;4931106;29;20044;-60
2021/05/12 01:45:46;;;;;;;1.92;0.47;;;;;;;;;;4934108;28;20043;-60
2021/05/12 01:48:12;;;;;;;5.20;0.50;;;;;;;;;;4918332;29;20042;-62
2021/05/12 01:50:39;;;;;;;4.93;0.52;;;;;;;;;;4934267;29;20047;-60
2021/05/12 01:53:05;;;;;;;5.40;0.70;;;;;;;;;;4934917;29;20054;-59
2021/05/12 01:55:31;;;;;;;4.25;0.95;;;;;;;;;;4935211;28;20067;-59
2021/05/12 01:57:57;;;;;;;2.20;0.45;;;;;;;;;;4939543;28;20074;-61
2021/05/12 02:00:23;;;;;;;2.33;0.50;;;;;;;;;;4938040;28;20043;-58
2021/05/12 02:02:49;;;;;;;3.28;0.50;;;;;;;;;;4939384;29;20662;-58
2021/05/12 02:05:15;;;;;;;4.47;0.60;;;;;;;;;;4938646;29;20035;-62
2021/05/12 02:07:41;;;;;;;6.40;0.60;;;;;;;;;;4937289;28;20032;-62
2021/05/12 02:10:07;;;;;;;1.63;0.50;;;;;;;;;;4939141;29;20044;-62
2021/05/12 02:12:36;;;;;;;5.05;0.60;;;;;;;;;;4936086;28;20134;-62
2021/05/12 02:15:03;;;;;;;3.67;0.47;;;;;;;;;;4935833;29;20047;-62
2021/05/12 02:17:28;;;;;;;1.75;0.50;;;;;;;;;;4935545;28;20123;-61
2021/05/12 02:19:54;;;;;;;3.55;0.70;;;;;;;;;;4935056;29;20043;-61
2021/05/12 02:22:20;;;;;;;1.73;0.40;;;;;;;;;;4935993;28;20134;-61
2021/05/12 02:24:46;;;;;;;2.55;0.70;;;;;;;;;;4935620;28;20039;-62
2021/05/12 02:27:12;;;;;;;2.80;0.60;;;;;;;;;;4936707;28;20047;-61
2021/05/12 02:29:38;;;;;;;4.03;0.60;;;;;;;;;;4934581;29;20093;-61
2021/05/12 02:32:04;;;;;;;1.08;0.40;;;;;;;;;;4936019;29;20585;-60
2021/05/12 02:34:29;;;;;;;2.08;0.50;;;;;;;;;;4934950;29;20032;-61
2021/05/12 02:36:55;;;;;;;1.80;0.52;;;;;;;;;;4935625;28;20046;-62
2021/05/12 02:39:21;;;;;;;4.97;1.60;;;;;;;;;;4936660;29;20046;-62
2021/05/12 02:41:47;;;;;;;2.80;0.77;;;;;;;;;;4940820;29;20067;-61
2021/05/12 02:44:13;;;;;;;6.10;1.17;;;;;;;;;;4937977;29;20039;-62
2021/05/12 02:46:39;;;;;;;4.72;1.38;;;;;;;;;;4936645;29;20043;-62
2021/05/12 02:49:04;;;;;;;7.00;1.58;;;;;;;;;;4937951;28;20042;-62
2021/05/12 02:51:30;;;;;;;5.63;1.42;;;;;;;;;;4936278;29;20079;-62
2021/05/12 02:53:56;;;;;;;5.68;1.10;;;;;;;;;;4936988;28;20031;-62
2021/05/12 02:56:22;;;;;;;5.47;0.93;;;;;;;;;;4935607;29;20437;-63
2021/05/12 02:58:48;;;;;;;2.63;0.73;;;;;;;;;;4934655;29;20051;-62
2021/05/12 03:01:14;;;;;;;5.18;0.90;;;;;;;;;;4933291;29;20044;-62
2021/05/12 03:03:40;;;;;;;4.35;0.90;;;;;;;;;;4932415;29;20041;-63
2021/05/12 03:06:06;;;;;;;5.07;0.80;;;;;;;;;;4933048;28;20047;-63
2021/05/12 03:08:36;;;;;;;4.18;0.95;;;;;;;;;;4925468;29;20051;-62
2021/05/12 03:11:02;;;;;;;3.95;0.70;;;;;;;;;;4925771;29;20933;-62
2021/05/12 03:13:31;;;;;;;4.85;0.93;;;;;;;;;;4921598;28;20046;-62
2021/05/12 03:15:57;;;;;;;6.70;1.42;;;;;;;;;;4933781;28;20043;-60
2021/05/12 03:18:26;;;;;;;4.45;1.30;;;;;;;;;;4936090;28;20043;-61
2021/05/12 03:20:51;;;;;;;5.88;1.50;;;;;;;;;;4936136;29;20127;-60
2021/05/12 03:23:17;;;;;;;6.05;1.30;;;;;;;;;;4933487;28;20054;-62
2021/05/12 03:25:43;;;;;;;11.05;2.28;;;;;;;;;;4935150;28;20061;-61
2021/05/12 03:28:09;;;;;;;6.82;1.95;;;;;;;;;;4935743;28;20043;-60
2021/05/12 03:30:36;;;;;;;15.50;1.80;;;;;;;;;;4908224;28;20601;-58
2021/05/12 03:33:03;;;;;;;4.25;1.35;;;;;;;;;;4927755;28;20047;-59
2021/05/12 03:35:29;;;;;;;5.22;1.13;;;;;;;;;;4932402;28;20062;-57
2021/05/12 03:37:58;;;;;;;10.63;1.55;;;;;;;;;;4934142;28;20111;-59
2021/05/12 03:40:25;;;;;;;4.88;1.20;;;;;;;;;;4925611;28;20043;-58
2021/05/12 03:42:51;;;;;;;10.35;1.50;;;;;;;;;;4933254;29;20055;-59
2021/05/12 03:45:17;;;;;;;5.90;1.30;;;;;;;;;;4934699;28;20040;-58
2021/05/12 03:47:43;;;;;;;4.55;0.95;;;;;;;;;;4932939;28;20081;-59
2021/05/12 03:50:10;;;;;;;6.57;1.35;;;;;;;;;;4911949;29;20439;-56
2021/05/12 03:52:36;;;;;;;6.55;0.95;;;;;;;;;;4933757;29;20039;-60
2021/05/12 03:55:03;;;;;;;5.15;0.88;;;;;;;;;;4927670;28;20035;-60
2021/05/12 03:57:29;;;;;;;2.92;0.80;;;;;;;;;;4929658;28;20406;-60
2021/05/12 03:59:55;;;;;;;5.68;1.02;;;;;;;;;;4912119;29;20047;-60
2021/05/12 04:02:21;;;;;;;5.43;0.90;;;;;;;;;;4934282;28;20192;-60
2021/05/12 04:04:47;;;;;;;7.80;1.40;;;;;;;;;;4933112;28;20059;-58
2021/05/12 04:07:13;;;;;;;12.45;1.40;;;;;;;;;;4935936;28;20506;-59
2021/05/12 04:09:38;;;;;;;13.30;1.40;;;;;;;;;;4932498;28;20474;-59
2021/05/12 04:12:05;;;;;;;12.82;1.45;;;;;;;;;;4935223;28;20051;-57
2021/05/12 04:14:30;;;;;;;12.00;1.42;;;;;;;;;;4934361;28;20490;-57
2021/05/12 04:16:56;;;;;;;9.45;1.42;;;;;;;;;;4936164;28;20050;-59
2021/05/12 04:19:22;;;;;;;9.40;1.20;;;;;;;;;;4934821;28;20085;-57
2021/05/12 04:21:48;;;;;;;9.98;1.33;;;;;;;;;;4934136;28;20046;-59
2021/05/12 04:24:14;;;;;;;10.13;1.30;;;;;;;;;;4935330;28;20039;-59
2021/05/12 04:26:40;;;;;;;10.38;1.50;;;;;;;;;;4932016;28;20089;-57
2021/05/12 04:29:06;;;;;;;9.77;1.98;;;;;;;;;;4934374;28;20485;-59
2021/05/12 04:31:34;;;;;;;11.93;1.52;;;;;;;;;;4934266;28;20510;-58
2021/05/12 04:34:00;;;;;;;7.70;1.35;;;;;;;;;;4935032;28;20050;-56
2021/05/12 04:36:26;;;;;;;9.90;1.73;;;;;;;;;;4931206;28;20058;-58
2021/05/12 04:38:52;;;;;;;8.07;1.50;;;;;;;;;;4927613;28;20050;-57
2021/05/12 04:41:18;;;;;;;13.80;1.98;;;;;;;;;;4935749;28;20090;-57
2021/05/12 04:43:47;;;;;;;8.38;1.58;;;;;;;;;;4931908;28;20048;-59
2021/05/12 04:46:13;;;;;;;10.88;1.85;;;;;;;;;;4934955;28;20043;-58
2021/05/12 04:48:39;;;;;;;12.45;2.50;;;;;;;;;;4933585;28;22148;-58
2021/05/12 04:51:05;;;;;;;10.98;1.73;;;;;;;;;;4935633;28;20134;-58
2021/05/12 04:53:31;;;;;;;7.97;2.00;;;;;;;;;;4932460;28;20047;-57
2021/05/12 04:55:57;;;;;;;14.88;3.45;;;;;;;;;;4936327;28;20170;-57
2021/05/12 04:58:23;;;;;;;12.55;2.40;;;;;;;;;;4932894;28;20043;-57
2021/05/12 05:00:49;;;;;;;8.55;1.98;;;;;;;;;;4934673;28;20047;-57
2021/05/12 05:03:15;;;;;;;9.70;2.53;;;;;;;;;;4934739;28;20043;-58
2021/05/12 05:05:41;;;;;;;9.15;1.90;;;;;;;;;;4935516;28;20521;-58
2021/05/12 05:08:07;;;;;;;11.68;2.17;;;;;;;;;;4935481;28;20057;-57
2021/05/12 05:10:33;;;;;;;8.75;2.05;;;;;;;;;;4910648;29;20087;-58
2021/05/12 05:12:59;;;;;;;15.77;2.70;;;;;;;;;;4932387;28;20485;-58
2021/05/12 05:15:25;;;;;;;14.98;2.50;;;;;;;;;;4934666;28;20102;-57
2021/05/12 05:17:51;;;;;;;12.27;2.33;;;;;;;;;;4933787;28;20042;-58
2021/05/12 05:20:17;;;;;;;19.30;2.78;;;;;;;;;;4934926;28;20057;-57
2021/05/12 05:22:43;;;;;;;21.92;2.35;;;;;;;;;;4931335;28;20510;-56
2021/05/12 05:25:09;;;;;;;14.98;2.75;;;;;;;;;;4935040;28;20054;-58
2021/05/12 05:27:35;;;;;;;12.88;2.55;;;;;;;;;;4933163;28;20044;-57
2021/05/12 05:30:01;;;;;;;11.23;2.10;;;;;;;;;;4936000;28;20031;-58
2021/05/12 05:32:27;;;;;;;10.40;2.40;;;;;;;;;;4936321;28;20111;-57
2021/05/12 05:34:53;;;;;;;11.70;2.13;;;;;;;;;;4935692;28;20225;-58
2021/05/12 05:37:19;;;;;;;14.60;2.35;;;;;;;;;;4932150;28;20531;-58
2021/05/12 05:39:45;;;;;;;13.50;2.60;;;;;;;;;;4937357;28;20089;-56
2021/05/12 05:42:11;;;;;;;15.70;2.53;;;;;;;;;;4938760;28;20557;-55
2021/05/12 05:44:39;;;;;;;17.13;2.75;;;;;;;;;;4936269;28;20127;-56
2021/05/12 05:47:05;;;;;;;10.70;2.47;;;;;;;;;;4936782;28;20496;-57
2021/05/12 05:49:31;;;;;;;13.13;3.10;;;;;;;;;;4935066;28;20043;-57
2021/05/12 05:51:58;;;;;;;14.43;1.98;;;;;;;;;;4937302;28;20051;-57
2021/05/12 05:54:24;;;;;;;9.95;1.70;;;;;;;;;;4934966;28;20069;-56
2021/05/12 05:56:51;;;;;;;13.90;1.48;;;;;;;;;;4936428;28;20075;-58
2021/05/12 05:59:17;;;;;;;6.03;1.40;;;;;;;;;;4937771;28;20143;-57
2021/05/12 06:01:43;;;;;;;7.55;1.40;;;;;;;;;;4934439;28;20047;-57
2021/05/12 06:04:09;;;;;;;5.03;1.20;;;;;;;;;;4935470;28;20039;-58
2021/05/12 06:06:35;;;;;;;4.13;1.15;;;;;;;;;;4936029;28;20058;-57
2021/05/12 06:09:01;;;;;;;6.65;1.38;;;;;;;;;;4935495;28;20039;-58
2021/05/12 06:11:27;;;;;;;5.57;1.33;;;;;;;;;;4912520;28;20051;-57
2021/05/12 06:13:52;;;;;;;7.25;1.60;;;;;;;;;;4934699;28;20075;-58
2021/05/12 06:16:19;;;;;;;6.25;1.60;;;;;;;;;;4937397;28;20561;-57
2021/05/12 06:18:45;;;;;;;5.25;1.40;;;;;;;;;;4935734;28;20031;-56
2021/05/12 06:21:11;;;;;;;4.85;1.55;;;;;;;;;;4936180;28;20051;-57
2021/05/12 06:23:39;;;;;;;4.93;1.63;;;;;;;;;;4934870;28;20036;-58
2021/05/12 06:26:13;;;;;;;5.80;1.55;;;;;;;;;;4937560;28;20058;-56
2021/05/12 06:28:39;;;;;;;4.75;1.52;;;;;;;;;;4934549;28;20043;-56
2021/05/12 06:31:05;;;;;;;4.63;1.60;;;;;;;;;;4936550;28;20051;-57
2021/05/12 06:33:31;;;;;;;5.80;1.42;;;;;;;;;;4935350;28;20035;-57
2021/05/12 06:35:56;;;;;;;7.63;1.60;;;;;;;;;;4936418;28;20055;-58
2021/05/12 06:38:23;;;;;;;5.80;1.80;;;;;;;;;;4934237;29;20054;-59
2021/05/12 06:40:49;;;;;;;6.88;1.65;;;;;;;;;;4934911;28;20103;-59
2021/05/12 06:43:15;;;;;;;6.55;1.73;;;;;;;;;;4934691;29;20052;-55
2021/05/12 06:45:41;;;;;;;8.30;2.05;;;;;;;;;;4933468;28;20036;-58
2021/05/12 06:48:07;;;;;;;4.57;1.90;;;;;;;;;;4935690;28;20536;-58
2021/05/12 06:50:33;;;;;;;6.30;1.40;;;;;;;;;;4936542;28;20058;-58
2021/05/12 06:52:59;;;;;;;5.22;1.67;;;;;;;;;;4933679;29;20032;-56
2021/05/12 06:55:25;;;;;;;11.23;1.63;;;;;;;;;;4935329;28;20533;-57
2021/05/12 06:57:51;;;;;;;9.15;1.83;;;;;;;;;;4935803;28;20043;-55
2021/05/12 07:00:18;;;;;;;4.10;1.95;;;;;;;;;;4934317;28;20100;-55
2021/05/12 07:02:43;;;;;;;10.15;2.60;;;;;;;;;;4933999;28;20558;-57
2021/05/12 07:05:14;;;;;;;5.72;2.38;;;;;;;;;;4936456;28;20053;-57
2021/05/12 07:07:40;;;;;;;9.50;2.60;;;;;;;;;;4935484;28;20047;-56
2021/05/12 07:10:06;;;;;;;6.40;2.40;;;;;;;;;;4937216;28;20056;-57
2021/05/12 07:12:32;;;;;;;14.55;2.40;;;;;;;;;;4934813;29;20042;-58
2021/05/12 07:14:58;;;;;;;10.38;2.38;;;;;;;;;;4936971;28;20039;-58
2021/05/12 07:17:24;;;;;;;14.43;3.25;;;;;;;;;;4935854;28;20047;-58
2021/05/12 07:19:50;;;;;;;10.48;3.17;;;;;;;;;;4936360;29;20753;-57
2021/05/12 07:22:15;;;;;;;15.40;3.10;;;;;;;;;;4936919;28;20067;-59
2021/05/12 07:24:41;;;;;;;12.38;2.47;;;;;;;;;;4934158;28;20099;-59
2021/05/12 07:27:07;;;;;;;8.25;2.17;;;;;;;;;;4936072;28;20491;-57
2021/05/12 07:29:33;;;;;;;8.80;1.92;;;;;;;;;;4918420;29;20047;-58
2021/05/12 07:31:59;;;;;;;7.05;1.65;;;;;;;;;;4936345;28;20076;-57
2021/05/12 07:34:25;;;;;;;8.00;1.70;;;;;;;;;;4936178;29;20079;-58
2021/05/12 07:36:51;;;;;;;8.13;1.75;;;;;;;;;;4934409;28;20043;-59
2021/05/12 07:39:17;;;;;;;5.75;1.65;;;;;;;;;;4933043;28;20462;-59
2021/05/12 07:41:44;;;;;;;5.63;1.60;;;;;;;;;;4933533;28;20066;-58
2021/05/12 07:44:10;;;;;;;7.72;1.60;;;;;;;;;;4934888;29;20172;-58
2021/05/12 07:46:36;;;;;;;6.20;1.60;;;;;;;;;;4933760;29;20085;-58
2021/05/12 07:49:02;;;;;;;7.40;1.70;;;;;;;;;;4934406;28;20039;-58
2021/05/12 07:51:29;;;;;;;6.20;1.80;;;;;;;;;;4934690;28;20086;-57
2021/05/12 07:53:54;;;;;;;6.88;1.50;;;;;;;;;;4935202;28;20770;-58
2021/05/12 07:56:20;;;;;;;4.68;1.40;;;;;;;;;;4936904;28;20049;-58
2021/05/12 07:58:46;;;;;;;6.75;1.80;;;;;;;;;;4937067;29;20043;-56
2021/05/12 08:01:39;;;;;;;4.38;1.50;;;;;;;;;;4936176;29;20126;-57
2021/05/12 08:04:05;;;;;;;6.32;1.85;;;;;;;;;;4936105;29;20075;-58
2021/05/12 08:06:31;;;;;;;6.00;1.88;;;;;;;;;;4936866;28;20054;-59
2021/05/12 08:08:57;;;;;;;7.40;1.58;;;;;;;;;;4935554;28;20048;-59
2021/05/12 08:11:23;;;;;;;7.15;1.92;;;;;;;;;;4932511;28;20047;-58
2021/05/12 08:13:49;;;;;;;8.13;1.77;;;;;;;;;;4927742;29;20541;-56
2021/05/12 08:16:15;;;;;;;6.97;1.90;;;;;;;;;;4934349;29;20043;-57
2021/05/12 08:18:41;;;;;;;8.68;1.73;;;;;;;;;;4927223;28;20078;-58
2021/05/12 08:21:07;;;;;;;6.15;1.70;;;;;;;;;;4934786;28;20425;-58
2021/05/12 08:23:33;;;;;;;6.55;2.30;;;;;;;;;;4931955;29;20473;-58
2021/05/12 08:26:00;;;;;;;9.30;2.30;;;;;;;;;;4935085;29;21576;-57
2021/05/12 08:28:26;;;;;;;14.25;3.42;;;;;;;;;;4934231;28;20040;-58
2021/05/12 08:30:52;;;;;;;6.03;2.00;;;;;;;;;;4935618;29;20094;-59
2021/05/12 08:33:18;;;;;;;4.50;1.80;;;;;;;;;;4934722;29;20050;-59
2021/05/12 08:35:45;;;;;;;7.60;1.95;;;;;;;;;;4937018;29;20032;-58
2021/05/12 08:38:13;;;;;;;4.65;2.30;;;;;;;;;;4936155;29;20856;-57
2021/05/12 08:40:42;;;;;;;8.77;1.95;;;;;;;;;;4937909;28;20043;-58
2021/05/12 08:43:07;;;;;;;6.90;2.03;;;;;;;;;;4936848;29;20452;-58
2021/05/12 08:45:34;;;;;;;7.70;2.13;;;;;;;;;;4934664;28;20126;-59
2021/05/12 08:48:04;;;;;;;8.13;2.10;;;;;;;;;;4936868;28;20043;-59
2021/05/12 08:50:30;;;;;;;9.90;2.28;;;;;;;;;;4936725;28;20086;-59
2021/05/12 08:52:56;;;;;;;9.82;2.53;;;;;;;;;;4934526;29;20201;-59
2021/05/12 08:55:22;;;;;;;8.50;2.22;;;;;;;;;;4934634;28;20073;-58
2021/05/12 08:57:48;;;;;;;10.15;2.10;;;;;;;;;;4934220;28;20157;-59
2021/05/12 09:00:14;;;;;;;7.75;2.15;;;;;;;;;;4934094;29;20051;-57
2021/05/12 09:02:40;;;;;;;8.30;2.28;;;;;;;;;;4933814;29;20043;-59
2021/05/12 09:05:09;;;;;;;7.35;1.90;;;;;;;;;;4936414;28;20042;-58
2021/05/12 09:07:35;;;;;;;10.52;2.15;;;;;;;;;;4937228;29;20043;-59
2021/05/12 09:10:02;;;;;;;8.73;2.47;;;;;;;;;;4938704;28;22029;-60
2021/05/12 09:12:41;;;;;;;7.55;1.70;;;;;;;;;;4936006;29;20051;-59
2021/05/12 09:15:08;;;;;;;6.85;1.98;;;;;;;;;;4938476;29;20036;-59
2021/05/12 09:17:40;;;;;;;5.15;1.60;;;;;;;;;;4937466;28;20109;-60
2021/05/12 09:20:22;;;;;;;4.72;1.92;;;;;;;;;;4938046;29;20640;-60
2021/05/12 09:23:00;;;;;;;5.65;1.80;;;;;;;;;;4937384;28;20513;-59
2021/05/12 09:25:27;;;;;;;5.43;1.80;;;;;;;;;;4935703;28;20035;-58
2021/05/12 09:28:07;;;;;;;4.30;1.90;;;;;;;;;;4937982;28;20043;-59
2021/05/12 09:30:36;;;;;;;5.10;1.70;;;;;;;;;;4936908;29;20066;-59
2021/05/12 09:33:02;;;;;;;4.95;1.90;;;;;;;;;;4935903;28;20546;-59
2021/05/12 09:35:27;;;;;;;4.65;1.67;;;;;;;;;;4937915;28;20043;-58
2021/05/12 09:37:53;;;;;;;7.47;1.67;;;;;;;;;;4936861;29;20039;-58
2021/05/12 09:40:22;;;;;;;4.85;1.70;;;;;;;;;;4935711;28;20445;-59
2021/05/12 09:42:59;;;;;;;11.52;2.15;;;;;;;;;;4936390;28;20050;-59
2021/05/12 09:45:26;;;;;;;6.75;1.92;;;;;;;;;;4935739;28;20047;-60
2021/05/12 09:47:51;;;;;;;5.80;2.10;;;;;;;;;;4935498;28;20513;-59
2021/05/12 09:50:25;;;;;;;5.55;1.83;;;;;;;;;;4936852;29;20090;-58
2021/05/12 09:52:56;;;;;;;4.15;1.77;;;;;;;;;;4935700;29;20035;-59
2021/05/12 09:55:32;;;;;;;4.45;1.77;;;;;;;;;;4935179;28;20094;-58
2021/05/12 09:58:03;;;;;;;5.03;2.17;;;;;;;;;;4937718;28;20040;-59
2021/05/12 10:00:33;;;;;;;5.25;2.05;;;;;;;;;;4937419;29;20138;-58
2021/05/12 10:03:00;;;;;;;6.90;2.50;;;;;;;;;;4936368;29;20047;-59
2021/05/12 10:05:26;;;;;;;7.20;2.17;;;;;;;;;;4937886;28;20077;-59
2021/05/12 10:07:52;;;;;;;6.97;2.35;;;;;;;;;;4935030;29;20120;-59
2021/05/12 10:10:34;;;;;;;8.52;2.40;;;;;;;;;;4934807;29;20839;-59
2021/05/12 10:13:00;;;;;;;6.70;2.40;;;;;;;;;;4935184;29;20031;-58
2021/05/12 10:15:26;;;;;;;5.50;2.20;;;;;;;;;;4936777;28;20746;-59
2021/05/12 10:17:52;;;;;;;10.38;2.72;;;;;;;;;;4934569;28;20049;-58
2021/05/12 10:20:19;;;;;;;6.43;2.45;;;;;;;;;;4934997;29;20134;-59
2021/05/12 10:22:45;;;;;;;9.38;2.53;;;;;;;;;;4937334;28;20519;-58
2021/05/12 10:25:11;;;;;;;7.45;2.30;;;;;;;;;;4936561;28;21102;-59
2021/05/12 10:27:37;;;;;;;7.60;2.58;;;;;;;;;;4936060;28;20059;-58
2021/05/12 10:30:04;;;;;;;6.72;2.03;;;;;;;;;;4936967;29;20604;-58
2021/05/12 10:32:33;;;;;;;7.47;2.33;;;;;;;;;;4934698;29;20691;-59
2021/05/12 10:35:00;;;;;;;5.50;2.38;;;;;;;;;;4938467;29;20031;-59
2021/05/12 10:37:28;;;;;;;10.55;2.53;;;;;;;;;;4936481;29;20501;-59
2021/05/12 10:39:59;;;;;;;8.63;2.33;;;;;;;;;;4935449;28;20054;-58
2021/05/12 10:42:45;;;;;;;9.65;2.47;;;;;;;;;;4928547;28;20057;-58
2021/05/12 10:45:13;;;;;;;6.93;2.58;;;;;;;;;;4936570;29;20047;-58
2021/05/12 10:47:39;;;;;;;7.45;2.63;;;;;;;;;;4936275;28;20126;-58
2021/05/12 10:50:05;;;;;;;7.18;2.53;;;;;;;;;;4935929;29;20045;-57
2021/05/12 10:52:31;;;;;;;7.47;2.65;;;;;;;;;;4935638;29;20643;-54
2021/05/12 10:54:57;;;;;;;5.63;2.30;;;;;;;;;;4937683;28;20043;-55
2021/05/12 10:57:32;;;;;;;6.25;2.22;;;;;;;;;;4935587;29;20479;-57
2021/05/12 10:59:58;;;;;;;5.45;2.10;;;;;;;;;;4936475;29;20043;-55
2021/05/12 11:02:42;;;;;;;6.50;2.13;;;;;;;;;;4935410;28;20039;-53
2021/05/12 11:05:08;;;;;;;7.82;2.17;;;;;;;;;;4936692;29;20418;-59
2021/05/12 11:07:34;;;;;;;11.55;2.83;;;;;;;;;;4934534;28;20043;-57
2021/05/12 11:10:00;;;;;;;10.27;2.70;;;;;;;;;;4935062;29;20059;-58
2021/05/12 11:12:33;;;;;;;9.70;2.85;;;;;;;;;;4933802;28;20059;-55
2021/05/12 11:15:00;;;;;;;8.35;2.50;;;;;;;;;;4934185;28;20071;-58
2021/05/12 11:17:45;;;;;;;8.70;2.50;;;;;;;;;;4934349;29;20039;-58
2021/05/12 11:20:19;;;;;;;9.32;2.42;;;;;;;;;;4937102;29;20063;-58
2021/05/12 11:22:45;;;;;;;5.60;2.20;;;;;;;;;;4935023;29;20117;-56
2021/05/12 11:32:36;;;;;;;6.65;2.75;;;;;;;;;;4934182;29;20051;-57
2021/05/12 11:35:08;;;;;;;13.75;2.75;;;;;;;;;;4935303;29;20040;-55
2021/05/12 11:37:37;;;;;;;10.93;2.63;;;;;;;;;;4933942;29;20043;-55
2021/05/12 11:40:03;;;;;;;7.15;2.47;;;;;;;;;;4936019;28;20499;-58
2021/05/12 11:42:31;;;;;;;9.07;2.42;;;;;;;;;;4936308;28;20049;-59
2021/05/12 11:45:04;;;;;;;14.57;2.20;;;;;;;;;;4935244;28;20540;-58
2021/05/12 11:47:30;;;;;;;8.15;2.40;;;;;;;;;;4933124;28;20040;-59
2021/05/12 11:49:56;;;;;;;6.90;2.35;;;;;;;;;;4935819;29;20058;-58
2021/05/12 11:52:32;;;;;;;5.70;2.58;;;;;;;;;;4933905;28;20763;-57
2021/05/12 11:55:07;;;;;;;10.68;2.38;;;;;;;;;;4934950;28;20051;-58
2021/05/12 11:57:35;;;;;;;11.73;2.38;;;;;;;;;;4935092;29;20039;-58
2021/05/12 12:00:04;;;;;;;8.93;2.63;;;;;;;;;;4934056;28;20039;-58
2021/05/12 12:02:30;;;;;;;18.00;2.92;;;;;;;;;;4934984;28;20047;-59
2021/05/12 12:05:04;;;;;;;7.35;2.78;;;;;;;;;;4936434;29;20031;-55
2021/05/12 12:07:32;;;;;;;8.18;2.78;;;;;;;;;;4933368;29;20508;-59
2021/05/12 12:10:01;;;;;;;8.20;2.58;;;;;;;;;;4934809;29;20065;-59
2021/05/12 12:12:28;;;;;;;11.88;2.53;;;;;;;;;;4933808;29;20059;-58
2021/05/12 12:15:03;;;;;;;13.55;2.90;;;;;;;;;;4935235;29;20696;-54
2021/05/12 12:17:28;;;;;;;6.97;2.47;;;;;;;;;;4934331;28;20522;-59
2021/05/12 12:19:59;;;;;;;16.75;2.88;;;;;;;;;;4936280;29;20054;-59
2021/05/12 12:22:24;;;;;;;8.68;2.80;;;;;;;;;;4934558;28;20043;-58
2021/05/12 12:24:50;;;;;;;7.40;2.30;;;;;;;;;;4935664;28;20039;-57
2021/05/12 12:27:18;;;;;;;10.63;2.75;;;;;;;;;;4934989;29;20040;-57
2021/05/12 12:29:47;;;;;;;12.75;3.00;;;;;;;;;;4933734;29;20122;-56
2021/05/12 12:32:13;;;;;;;9.15;3.55;;;;;;;;;;4933926;29;20066;-59
2021/05/12 12:34:44;;;;;;;9.80;3.38;;;;;;;;;;4934188;28;20077;-59
2021/05/12 12:37:18;;;;;;;14.00;3.28;;;;;;;;;;4933759;29;20151;-57
2021/05/12 12:39:45;;;;;;;;;;;;;;;;;;4932887;28;20043;-60
2021/05/12 12:42:11;;;;;;;13.93;3.40;;;;;;;;;;4932920;29;19945;-59
2021/05/12 12:44:39;;;;;;;19.73;3.63;;;;;;;;;;4934132;28;20233;-56
2021/05/12 12:47:13;;;;;;;18.52;3.58;;;;;;;;;;4934962;28;20122;-58
2021/05/12 12:49:47;;;;;;;12.23;3.80;;;;;;;;;;4914971;28;20596;-59
2021/05/12 12:52:17;;;;;;;11.45;3.08;;;;;;;;;;4933265;28;20467;-59
2021/05/12 12:57:12;;;;;;;13.65;3.63;;;;;;;;;;4933769;28;20073;-58
2021/05/12 13:00:10;;;;;;;15.82;3.20;;;;;;;;;;4932671;29;20604;-60
2021/05/12 13:02:37;;;;;;;9.45;2.67;;;;;;;;;;4906770;29;20170;-59
2021/05/12 13:05:13;;;;;;;13.88;3.35;;;;;;;;;;4933401;29;20132;-58
2021/05/12 13:07:39;;;;;;;14.55;2.90;;;;;;;;;;4933201;29;20047;-56
2021/05/12 13:10:23;;;;;;;13.65;3.50;;;;;;;;;;4935565;28;20051;-59
2021/05/12 13:12:49;;;;;;;13.80;2.88;;;;;;;;;;4933246;29;20074;-58
2021/05/12 13:15:21;;;;;;;8.23;3.40;;;;;;;;;;4933692;29;21085;-58
2021/05/12 13:17:51;;;;;;;16.52;3.10;;;;;;;;;;4933214;28;20039;-58
2021/05/12 13:20:20;;;;;;;16.50;3.30;;;;;;;;;;4934639;28;20040;-56
2021/05/12 13:23:06;;;;;;;21.70;3.38;;;;;;;;;;4934236;28;20047;-59
2021/05/12 13:25:33;;;;;;;13.52;3.30;;;;;;;;;;4933501;28;20036;-59
2021/05/12 13:28:05;;;;;;;16.80;3.45;;;;;;;;;;4936351;28;20668;-59
2021/05/12 13:30:31;;;;;;;57.45;7.65;;;;;;;;;;4934744;28;20043;-58
2021/05/12 13:32:57;;;;;;;10.30;3.10;;;;;;;;;;4932367;28;20054;-57
2021/05/12 13:35:22;;;;;;;21.05;4.80;;;;;;;;;;4932456;28;20036;-57
2021/05/12 13:37:50;;;;;;;12.52;3.22;;;;;;;;;;4933736;29;20806;-57
2021/05/12 13:40:16;;;;;;;17.60;3.35;;;;;;;;;;4933356;28;20039;-57
2021/05/12 13:42:42;;;;;;;8.20;3.00;;;;;;;;;;4932895;29;20040;-58
2021/05/12 13:45:10;;;;;;;12.63;3.40;;;;;;;;;;4934558;28;20551;-58
2021/05/12 13:47:36;;;;;;;11.65;3.25;;;;;;;;;;4934350;29;20047;-59
2021/05/12 13:50:03;;;;;;;15.80;3.22;;;;;;;;;;4937133;28;20043;-58
2021/05/12 13:52:36;;;;;;;14.15;3.10;;;;;;;;;;4937834;29;20138;-59
2021/05/12 13:55:11;;;;;;;10.88;3.08;;;;;;;;;;4941296;28;20039;-58
2021/05/12 14:03:05;;;;;;;10.15;3.03;;;;;;;;;;4937599;29;20054;-57
2021/05/12 14:05:35;;;;;;;12.65;3.15;;;;;;;;;;4937261;29;20035;-58
2021/05/12 14:08:00;;;;;;;10.18;3.10;;;;;;;;;;4938378;29;20117;-60
2021/05/12 14:10:33;;;;;;;7.13;3.30;;;;;;;;;;4936797;29;20039;-60
2021/05/12 14:13:34;;;;;;;16.42;3.38;;;;;;;;;;4936495;29;20043;-59
2021/05/12 14:18:34;;;;;;;9.82;3.30;;;;;;;;;;4936053;29;20863;-59
2021/05/12 14:21:00;;;;;;;7.10;2.92;;;;;;;;;;4931466;29;20050;-59
2021/05/12 14:23:26;;;;;;;10.23;2.67;;;;;;;;;;4937871;28;20123;-60
2021/05/12 14:25:52;;;;;;;8.52;2.55;;;;;;;;;;4937932;28;20091;-59
2021/05/12 14:28:26;;;;;;;16.27;4.50;;;;;;;;;;4928067;28;20703;-57
2021/05/12 14:30:52;;;;;;;14.48;2.88;;;;;;;;;;4938456;28;20859;-59
2021/05/12 14:33:18;;;;;;;8.82;2.90;;;;;;;;;;4935469;28;20050;-59
2021/05/12 14:35:44;;;;;;;18.58;3.70;;;;;;;;;;4937597;28;20097;-60
2021/05/12 14:38:10;;;;;;;13.65;3.30;;;;;;;;;;4937665;28;20043;-60
2021/05/12 14:40:36;;;;;;;17.65;2.40;;;;;;;;;;4936143;28;20043;-59
2021/05/12 14:43:01;;;;;;;10.38;2.40;;;;;;;;;;4937640;28;20043;-59
2021/05/12 14:45:27;;;;;;;7.60;2.40;;;;;;;;;;4935211;28;20035;-59
2021/05/12 14:48:05;;;;;;;5.25;2.15;;;;;;;;;;4933650;29;20048;-58
2021/05/12 14:50:31;;;;;;;11.45;2.78;;;;;;;;;;4935860;28;20039;-60
2021/05/12 14:53:00;;;;;;;8.57;2.10;;;;;;;;;;4934859;29;20059;-58
2021/05/12 14:58:11;;;;;;;10.40;2.60;;;;;;;;;;4935205;29;20039;-59
2021/05/12 15:00:57;;;;;;;9.00;2.25;;;;;;;;;;4936406;28;20925;-56
2021/05/12 15:03:28;;;;;;;7.32;2.25;;;;;;;;;;4933947;28;20089;-61
2021/05/12 15:08:23;;;;;;;7.18;1.88;;;;;;;;;;4933791;28;20528;-58